sensor_id;sensor_type;location;lat;lon;timestamp;temperature;humidity
50690;DHT22;54375;48.298;11.238;2023-02-28T00:10:44;-2.40;76.50
50690;DHT22;54375;48.298;11.238;2023-02-28T00:25:47;-2.50;77.30
50690;DHT22;54375;48.298;11.238;2023-02-28T00:40:49;-2.70;78.70
50690;DHT22;54375;48.298;11.238;2023-02-28T00:55:52;-2.80;79.50
50690;DHT22;54375;48.298;11.238;2023-02-28T01:10:54;-3.00;79.90
50690;DHT22;54375;48.298;11.238;2023-02-28T01:25:57;-3.10;80.40
50690;DHT22;54375;48.298;11.238;2023-02-28T01:41:00;-3.20;81.00
50690;DHT22;54375;48.298;11.238;2023-02-28T01:56:04;-3.40;81.40
50690;DHT22;54375;48.298;11.238;2023-02-28T02:11:11;-3.50;82.10
50690;DHT22;54375;48.298;11.238;2023-02-28T02:26:59;-3.60;82.70
50690;DHT22;54375;48.298;11.238;2023-02-28T02:42:13;-3.70;83.30
50690;DHT22;54375;48.298;11.238;2023-02-28T02:57:21;-3.70;84.00
50690;DHT22;54375;48.298;11.238;2023-02-28T03:12:27;-3.70;85.00
50690;DHT22;54375;48.298;11.238;2023-02-28T03:27:38;-3.70;85.60
50690;DHT22;54375;48.298;11.238;2023-02-28T03:42:44;-3.60;86.10
50690;DHT22;54375;48.298;11.238;2023-02-28T03:57:54;-3.40;86.30
50690;DHT22;54375;48.298;11.238;2023-02-28T04:12:58;-3.20;85.80
50690;DHT22;54375;48.298;11.238;2023-02-28T04:28:01;-3.20;85.20
50690;DHT22;54375;48.298;11.238;2023-02-28T04:43:03;-3.00;85.60
50690;DHT22;54375;48.298;11.238;2023-02-28T04:58:06;-3.00;85.00
50690;DHT22;54375;48.298;11.238;2023-02-28T05:13:09;-2.90;84.40
50690;DHT22;54375;48.298;11.238;2023-02-28T05:28:12;-2.80;83.60
50690;DHT22;54375;48.298;11.238;2023-02-28T05:43:14;-2.90;84.10
50690;DHT22;54375;48.298;11.238;2023-02-28T05:58:17;-2.90;84.10
50690;DHT22;54375;48.298;11.238;2023-02-28T06:13:19;-2.80;83.80
50690;DHT22;54375;48.298;11.238;2023-02-28T06:28:21;-2.80;83.60
50690;DHT22;54375;48.298;11.238;2023-02-28T06:43:24;-2.90;83.80
50690;DHT22;54375;48.298;11.238;2023-02-28T06:58:27;-2.80;83.70
50690;DHT22;54375;48.298;11.238;2023-02-28T07:13:29;-2.80;83.20
50690;DHT22;54375;48.298;11.238;2023-02-28T07:28:32;-2.60;82.90
50690;DHT22;54375;48.298;11.238;2023-02-28T07:43:35;-2.50;82.70
50690;DHT22;54375;48.298;11.238;2023-02-28T07:58:37;-2.30;81.70
50690;DHT22;54375;48.298;11.238;2023-02-28T08:13:40;-2.20;80.80
50690;DHT22;54375;48.298;11.238;2023-02-28T08:28:42;-2.00;80.90
50690;DHT22;54375;48.298;11.238;2023-02-28T08:43:45;-1.80;79.20
50690;DHT22;54375;48.298;11.238;2023-02-28T08:58:48;-1.70;79.30
50690;DHT22;54375;48.298;11.238;2023-02-28T09:13:51;-1.40;77.70
50690;DHT22;54375;48.298;11.238;2023-02-28T09:28:54;-1.10;77.00
50690;DHT22;54375;48.298;11.238;2023-02-28T09:43:59;-0.70;75.40
50690;DHT22;54375;48.298;11.238;2023-02-28T09:59:09;-0.30;74.80
50690;DHT22;54375;48.298;11.238;2023-02-28T10:14:15;0.10;73.00
50690;DHT22;54375;48.298;11.238;2023-02-28T10:29:18;1.30;70.60
50690;DHT22;54375;48.298;11.238;2023-02-28T10:44:23;2.30;66.10
50690;DHT22;54375;48.298;11.238;2023-02-28T10:59:29;2.70;66.90
50690;DHT22;54375;48.298;11.238;2023-02-28T11:14:34;2.50;65.30
50690;DHT22;54375;48.298;11.238;2023-02-28T11:29:47;2.20;65.60
50690;DHT22;54375;48.298;11.238;2023-02-28T11:44:59;3.80;62.00
50690;DHT22;54375;48.298;11.238;2023-02-28T12:00:11;3.30;62.70
50690;DHT22;54375;48.298;11.238;2023-02-28T12:15:32;3.60;62.40
50690;DHT22;54375;48.298;11.238;2023-02-28T12:30:51;3.70;61.90
50690;DHT22;54375;48.298;11.238;2023-02-28T12:45:58;4.70;61.00
50690;DHT22;54375;48.298;11.238;2023-02-28T13:01:26;4.40;59.40
50690;DHT22;54375;48.298;11.238;2023-02-28T13:16:53;4.80;60.10
50690;DHT22;54375;48.298;11.238;2023-02-28T13:47:39;5.40;57.50
50690;DHT22;54375;48.298;11.238;2023-02-28T14:02:56;6.10;55.50
50690;DHT22;54375;48.298;11.238;2023-02-28T14:18:05;5.80;55.60
50690;DHT22;54375;48.298;11.238;2023-02-28T14:33:30;4.70;58.40
50690;DHT22;54375;48.298;11.238;2023-02-28T14:48:33;4.40;60.40
50690;DHT22;54375;48.298;11.238;2023-02-28T15:03:38;4.90;59.40
50690;DHT22;54375;48.298;11.238;2023-02-28T15:18:46;5.00;58.80
50690;DHT22;54375;48.298;11.238;2023-02-28T15:33:58;4.80;59.40
50690;DHT22;54375;48.298;11.238;2023-02-28T15:49:04;4.30;59.50
50690;DHT22;54375;48.298;11.238;2023-02-28T16:04:13;4.00;60.40
50690;DHT22;54375;48.298;11.238;2023-02-28T16:19:16;3.90;61.70
50690;DHT22;54375;48.298;11.238;2023-02-28T16:34:19;3.50;62.90
50690;DHT22;54375;48.298;11.238;2023-02-28T16:49:22;3.00;65.10
50690;DHT22;54375;48.298;11.238;2023-02-28T17:04:24;2.40;66.90
50690;DHT22;54375;48.298;11.238;2023-02-28T17:19:27;1.90;68.10
50690;DHT22;54375;48.298;11.238;2023-02-28T17:34:29;1.30;70.10
50690;DHT22;54375;48.298;11.238;2023-02-28T17:49:32;0.80;72.60
50690;DHT22;54375;48.298;11.238;2023-02-28T18:04:34;0.30;73.80
50690;DHT22;54375;48.298;11.238;2023-02-28T18:19:37;-0.10;76.40
50690;DHT22;54375;48.298;11.238;2023-02-28T18:34:39;-0.30;78.70
50690;DHT22;54375;48.298;11.238;2023-02-28T18:49:41;-0.20;78.90
50690;DHT22;54375;48.298;11.238;2023-02-28T19:04:43;0.00;79.10
50690;DHT22;54375;48.298;11.238;2023-02-28T19:19:46;0.20;78.90
50690;DHT22;54375;48.298;11.238;2023-02-28T19:34:48;0.30;78.70
50690;DHT22;54375;48.298;11.238;2023-02-28T19:49:51;0.30;78.70
50690;DHT22;54375;48.298;11.238;2023-02-28T20:04:53;0.30;78.90
50690;DHT22;54375;48.298;11.238;2023-02-28T20:19:55;0.20;79.40
50690;DHT22;54375;48.298;11.238;2023-02-28T20:34:58;0.20;79.90
50690;DHT22;54375;48.298;11.238;2023-02-28T20:50:01;0.10;80.60
50690;DHT22;54375;48.298;11.238;2023-02-28T21:05:04;0.20;81.20
50690;DHT22;54375;48.298;11.238;2023-02-28T21:20:08;0.10;81.60
50690;DHT22;54375;48.298;11.238;2023-02-28T21:35:10;0.10;81.80
50690;DHT22;54375;48.298;11.238;2023-02-28T21:50:13;0.10;82.20
50690;DHT22;54375;48.298;11.238;2023-02-28T22:05:15;0.10;82.20
50690;DHT22;54375;48.298;11.238;2023-02-28T22:20:18;0.10;82.60
50690;DHT22;54375;48.298;11.238;2023-02-28T22:35:20;0.10;82.80
50690;DHT22;54375;48.298;11.238;2023-02-28T22:50:23;0.20;82.80
50690;DHT22;54375;48.298;11.238;2023-02-28T23:05:30;0.10;82.50
50690;DHT22;54375;48.298;11.238;2023-02-28T23:20:33;0.20;82.30
50690;DHT22;54375;48.298;11.238;2023-02-28T23:35:35;0.20;82.10
50690;DHT22;54375;48.298;11.238;2023-02-28T23:50:38;0.20;81.90
